Terminal Aerodrome Forecast
Issued by NWS

Home | Current Version | Previous Version | Text Only | Print | Product List | Glossary Off
Versions: 1 2 3 4 5 6 7 8 9 10 11 12 13 14 15 16 17 18 19 20 21 22 23 24 25 26 27 28 29 30 31 32 33 34 35 36 37 38

000
FTUS43 KLOT 152201 AAB
TAFORD
TAF AMD
KORD 152201Z 1522/1624 06013G20KT P6SM SCT180 BKN250
     FM160000 08011KT P6SM BKN120
     FM160400 09009KT P6SM VCSH OVC060
     FM160600 08010KT P6SM BKN045 OVC060
     FM160900 07007KT P6SM BKN025
      TEMPO 1609/1613 5SM -SHRA BR OVC008
     FM161300 05006KT 5SM BR OVC010
     FM161600 06008KT P6SM BKN015=

USA.gov is the U.S. government's official web portal to all federal, state and local government web resources and services.